createdAt,value
2022-11-18T00:07:48.877Z,97356.70
2022-11-18T00:17:56.407Z,97355.95
2022-11-18T00:28:03.316Z,97365.25
2022-11-18T00:38:10.648Z,97371.53
2022-11-18T00:48:17.270Z,97377.95
2022-11-18T00:58:24.393Z,97379.09
2022-11-18T01:08:31.379Z,97376.49
2022-11-18T01:18:38.639Z,97362.22
2022-11-18T01:28:46.591Z,97338.43
2022-11-18T01:38:55.120Z,97318.81
2022-11-18T01:49:06.800Z,97299.30
2022-11-18T01:59:16.718Z,97292.85
2022-11-18T02:09:24.655Z,97296.58
2022-11-18T02:19:50.608Z,97297.00
2022-11-18T02:30:00.975Z,97295.98
2022-11-18T02:40:06.463Z,97284.39
2022-11-18T02:50:14.094Z,97276.45
2022-11-18T03:00:21.727Z,97274.65
2022-11-18T03:10:34.504Z,97279.15
2022-11-18T03:20:42.506Z,97281.35
2022-11-18T03:30:56.068Z,97272.35
2022-11-18T03:41:08.065Z,97267.84
2022-11-18T03:51:17.077Z,97268.86
2022-11-18T04:01:26.576Z,97267.73
2022-11-18T04:11:48.804Z,97258.39
2022-11-18T04:21:54.732Z,97261.15
2022-11-18T04:32:02.110Z,97258.84
2022-11-18T04:42:09.313Z,97250.01
2022-11-18T04:52:16.830Z,97238.03
2022-11-18T05:02:24.319Z,97247.97
2022-11-18T05:12:49.241Z,97245.29
2022-11-18T05:22:56.609Z,97253.67
2022-11-18T05:33:03.744Z,97264.16
2022-11-18T05:43:14.524Z,97282.95
2022-11-18T05:53:23.791Z,97296.98
2022-11-18T06:03:36.265Z,97298.14
2022-11-18T06:13:50.746Z,97303.39
2022-11-18T06:23:58.510Z,97306.00
2022-11-18T06:34:04.270Z,97325.07
2022-11-18T06:44:13.329Z,97327.73
2022-11-18T06:54:21.016Z,97328.72
2022-11-18T07:04:28.353Z,97342.10
2022-11-18T07:14:35.708Z,97363.70
2022-11-18T07:24:43.692Z,97367.77
2022-11-18T07:34:50.788Z,97372.20
2022-11-18T07:44:57.833Z,97373.34
2022-11-18T07:55:05.000Z,97375.20
2022-11-18T08:05:14.670Z,97367.85
2022-11-18T08:15:25.232Z,97364.08
2022-11-18T08:25:32.389Z,97371.13
2022-11-18T08:35:39.754Z,97378.67
2022-11-18T08:55:57.295Z,97379.90
2022-11-18T09:06:07.795Z,97394.92
2022-11-18T09:16:15.613Z,97398.66
2022-11-18T09:26:41.731Z,97400.05
2022-11-18T09:36:48.965Z,97400.88
2022-11-18T09:46:57.679Z,97411.89
2022-11-18T09:57:12.054Z,97403.67
2022-11-18T10:07:23.805Z,97413.04
2022-11-18T10:17:33.991Z,97419.88
2022-11-18T10:27:44.781Z,97415.09
2022-11-18T10:38:07.958Z,97421.06
2022-11-18T10:48:17.757Z,97411.04
2022-11-18T10:58:26.146Z,97418.76
2022-11-18T11:08:37.470Z,97419.31
2022-11-18T11:18:57.523Z,97438.45
2022-11-18T11:29:02.683Z,97438.54
2022-11-18T11:39:15.224Z,97446.25
2022-11-18T11:49:31.027Z,97444.63
2022-11-18T11:59:38.690Z,97436.96
2022-11-18T12:09:47.337Z,97431.21
2022-11-18T12:19:54.413Z,97425.06
2022-11-18T12:30:04.172Z,97433.70
2022-11-18T12:40:12.184Z,97426.60
2022-11-18T12:50:19.849Z,97435.65
2022-11-18T13:00:53.100Z,97439.41
2022-11-18T13:11:23.178Z,97435.96
2022-11-18T13:21:49.858Z,97451.45
2022-11-18T13:31:58.618Z,97461.33
2022-11-18T13:42:06.614Z,97465.70
2022-11-18T13:52:12.848Z,97467.00
2022-11-18T14:02:20.734Z,97477.63
2022-11-18T14:22:51.236Z,97517.72
2022-11-18T14:33:15.201Z,97531.69
2022-11-18T14:43:22.314Z,97543.30
2022-11-18T14:53:29.730Z,97553.14
2022-11-18T15:03:36.147Z,97560.52
2022-11-18T15:13:44.226Z,97557.88
2022-11-18T15:23:52.039Z,97565.50
2022-11-18T15:34:05.099Z,97571.45
2022-11-18T15:44:14.173Z,97566.00
2022-11-18T15:54:20.557Z,97582.32
2022-11-18T16:14:36.966Z,97587.31
2022-11-18T16:24:48.192Z,97599.52
2022-11-18T16:35:00.013Z,97598.13
2022-11-18T16:45:09.914Z,97603.81
2022-11-18T16:55:18.462Z,97612.71
2022-11-18T17:05:25.644Z,97622.68
2022-11-18T17:15:32.639Z,97621.75
2022-11-18T17:25:39.055Z,97628.90
2022-11-18T17:35:46.245Z,97636.45
2022-11-18T17:45:51.517Z,97641.11
2022-11-18T17:56:03.735Z,97646.94
2022-11-18T18:06:09.250Z,97653.77
2022-11-18T18:16:16.777Z,97653.30
2022-11-18T18:26:30.951Z,97667.40
2022-11-18T18:36:39.477Z,97679.30
2022-11-18T18:46:45.336Z,97687.33
2022-11-18T18:56:52.617Z,97696.94
2022-11-18T19:07:00.598Z,97701.27
2022-11-18T19:17:11.358Z,97701.86
2022-11-18T19:27:19.172Z,97706.00
2022-11-18T19:37:25.401Z,97718.86
2022-11-18T19:47:31.835Z,97720.19
2022-11-18T19:57:39.247Z,97721.61
2022-11-18T20:07:46.356Z,97738.41
2022-11-18T20:17:53.436Z,97740.56
2022-11-18T20:28:00.528Z,97745.98
2022-11-18T20:38:07.764Z,97758.68
2022-11-18T20:48:14.315Z,97763.04
2022-11-18T20:58:21.628Z,97761.48
2022-11-18T21:08:29.114Z,97762.77
2022-11-18T21:18:36.393Z,97780.70
2022-11-18T21:28:43.527Z,97791.77
2022-11-18T21:38:51.271Z,97796.50
2022-11-18T21:49:00.356Z,97798.58
2022-11-18T21:59:05.293Z,97805.13
2022-11-18T22:09:12.501Z,97822.05
2022-11-18T22:19:19.943Z,97824.24
2022-11-18T22:29:27.851Z,97830.29
2022-11-18T22:39:34.859Z,97819.09
2022-11-18T22:49:41.901Z,97829.67
2022-11-18T22:59:49.488Z,97840.19
2022-11-18T23:09:56.561Z,97840.47
2022-11-18T23:20:03.964Z,97837.88
2022-11-18T23:30:12.687Z,97847.16
2022-11-18T23:40:20.644Z,97847.98
2022-11-18T23:50:27.850Z,97861.63
